Time,TemperatureF,DewpointF,PressureIn,WindDirection,WindDirectionDegrees,WindSpeedMPH,WindSpeedGustMPH,Humidity,HourlyPrecipIn,Conditions,Clouds,dailyrainin,SoftwareType,DateUTC
2013-05-10 00:00:00,64.4,60.8,30.06,North,0,0.0,0.0,88,0.00,CLR,CLR,0.00,WeatherDisplay:10.37,2013-05-10 04:00:00,
2013-05-10 00:01:00,64.4,60.8,30.06,North,0,0.0,0.0,88,0.00,CLR,CLR,0.00,WeatherDisplay:10.37,2013-05-10 04:01:00,
2013-05-10 00:02:00,64.4,60.8,30.06,North,0,0.0,0.0,88,0.00,CLR,CLR,0.00,WeatherDisplay:10.37,2013-05-10 04:02:00,
2013-05-10 00:03:00,64.4,60.8,30.06,North,0,0.0,0.0,88,0.00,CLR,CLR,0.00,WeatherDisplay:10.37,2013-05-10 04:03:00,
2013-05-10 00:08:00,64.4,60.8,30.06,North,0,0.0,0.0,88,0.00,CLR,CLR,0.00,WeatherDisplay:10.37,2013-05-10 04:08:00,
2013-05-10 00:13:00,64.0,60.7,30.06,North,0,0.0,0.0,89,0.00,CLR,CLR,0.00,WeatherDisplay:10.37,2013-05-10 04:13:00,
2013-05-10 00:19:00,64.0,60.7,30.06,North,0,0.0,0.0,89,0.00,CLR,CLR,0.00,WeatherDisplay:10.37,2013-05-10 04:19:00,
2013-05-10 00:24:00,64.0,61.0,30.06,North,0,0.0,0.0,90,0.00,CLR,CLR,0.00,WeatherDisplay:10.37,2013-05-10 04:24:00,
2013-05-10 00:29:00,63.7,60.7,30.06,North,0,0.0,0.0,90,0.00,CLR,CLR,0.00,WeatherDisplay:10.37,2013-05-10 04:29:00,
2013-05-10 00:34:00,63.9,60.9,30.06,North,0,0.0,0.0,90,0.00,CLR,CLR,0.00,WeatherDisplay:10.37,2013-05-10 04:34:00,
2013-05-10 00:39:00,63.7,60.7,30.06,North,0,0.0,0.0,90,0.00,CLR,CLR,0.00,WeatherDisplay:10.37,2013-05-10 04:39:00,
2013-05-10 00:45:00,63.5,60.5,30.06,North,0,0.0,0.0,90,0.00,CLR,CLR,0.00,WeatherDisplay:10.37,2013-05-10 04:45:00,
2013-05-10 00:50:00,63.3,60.6,30.06,North,0,0.0,0.0,91,0.00,CLR,CLR,0.00,WeatherDisplay:10.37,2013-05-10 04:50:00,
2013-05-10 00:55:00,63.1,60.5,30.06,North,0,0.0,0.0,91,0.00,CLR,CLR,0.00,WeatherDisplay:10.37,2013-05-10 04:55:00,
2013-05-10 01:00:00,63.0,60.3,30.06,North,0,0.0,0.0,91,0.00,CLR,CLR,0.00,WeatherDisplay:10.37,2013-05-10 05:00:00,
2013-05-10 01:05:00,62.8,60.1,30.06,North,0,0.0,0.0,91,0.00,CLR,CLR,0.00,WeatherDisplay:10.37,2013-05-10 05:05:00,
2013-05-10 01:10:00,62.6,59.9,30.06,North,0,0.0,0.0,91,0.00,CLR,CLR,0.00,WeatherDisplay:10.37,2013-05-10 05:10:00,
2013-05-10 01:15:00,62.8,60.1,30.06,North,0,0.0,0.0,91,0.00,CLR,CLR,0.00,WeatherDisplay:10.37,2013-05-10 05:15:00,
2013-05-10 01:21:00,63.0,60.3,30.06,North,0,0.0,0.0,91,0.00,CLR,CLR,0.00,WeatherDisplay:10.37,2013-05-10 05:21:00,
2013-05-10 01:26:00,62.8,60.1,30.06,North,0,0.0,0.0,91,0.00,CLR,CLR,0.00,WeatherDisplay:10.37,2013-05-10 05:26:00,
2013-05-10 01:31:00,62.6,60.2,30.06,North,0,0.0,0.0,92,0.00,CLR,CLR,0.00,WeatherDisplay:10.37,2013-05-10 05:31:00,
2013-05-10 01:36:00,62.6,60.2,30.06,North,0,0.0,0.0,92,0.00,CLR,CLR,0.00,WeatherDisplay:10.37,2013-05-10 05:36:00,
2013-05-10 01:42:00,62.6,60.2,30.06,North,0,0.0,0.0,92,0.00,CLR,CLR,0.00,WeatherDisplay:10.37,2013-05-10 05:42:00,
2013-05-10 01:47:00,62.6,60.2,30.06,North,0,0.0,0.0,92,0.00,CLR,CLR,0.00,WeatherDisplay:10.37,2013-05-10 05:47:00,
2013-05-10 01:52:00,62.2,59.9,30.06,North,0,0.0,0.0,92,0.00,CLR,CLR,0.00,WeatherDisplay:10.37,2013-05-10 05:52:00,
2013-05-10 01:57:00,62.2,59.9,30.06,North,0,0.0,0.0,92,0.00,CLR,CLR,0.00,WeatherDisplay:10.37,2013-05-10 05:57:00,
2013-05-10 02:02:00,62.1,59.7,30.06,North,0,0.0,0.0,92,0.00,CLR,CLR,0.00,WeatherDisplay:10.37,2013-05-10 06:02:00,
2013-05-10 02:07:00,61.9,59.5,30.06,North,0,0.0,0.0,92,0.00,CLR,CLR,0.00,WeatherDisplay:10.37,2013-05-10 06:07:00,
2013-05-10 02:12:00,61.9,59.5,30.03,North,0,0.0,0.0,92,0.00,CLR,CLR,0.00,WeatherDisplay:10.37,2013-05-10 06:12:00,
2013-05-10 02:18:00,61.7,59.7,30.03,North,0,0.0,0.0,93,0.00,CLR,CLR,0.00,WeatherDisplay:10.37,2013-05-10 06:18:00,
2013-05-10 02:23:00,61.5,59.5,30.03,North,0,0.0,0.0,93,0.00,CLR,CLR,0.00,WeatherDisplay:10.37,2013-05-10 06:23:00,
2013-05-10 02:28:00,61.5,59.5,30.06,North,0,0.0,0.0,93,0.00,CLR,CLR,0.00,WeatherDisplay:10.37,2013-05-10 06:28:00,
2013-05-10 02:33:00,61.3,59.3,30.06,North,0,0.0,0.0,93,0.00,CLR,CLR,0.00,WeatherDisplay:10.37,2013-05-10 06:33:00,
2013-05-10 02:38:00,61.2,59.1,30.06,North,0,0.0,0.0,93,0.00,CLR,CLR,0.00,WeatherDisplay:10.37,2013-05-10 06:38:00,
2013-05-10 02:43:00,61.2,59.1,30.06,North,0,0.0,0.0,93,0.00,CLR,CLR,0.00,WeatherDisplay:10.37,2013-05-10 06:43:00,
2013-05-10 02:48:00,61.0,58.9,30.06,North,0,0.0,0.0,93,0.00,CLR,CLR,0.00,WeatherDisplay:10.37,2013-05-10 06:48:00,
2013-05-10 02:53:00,61.2,59.1,30.06,North,0,0.0,0.0,93,0.00,CLR,CLR,0.00,WeatherDisplay:10.37,2013-05-10 06:53:00,
2013-05-10 02:58:00,61.0,58.9,30.06,North,0,0.0,0.0,93,0.00,CLR,CLR,0.00,WeatherDisplay:10.37,2013-05-10 06:58:00,
2013-05-10 03:03:00,61.0,58.9,30.06,North,0,0.0,0.0,93,0.00,CLR,CLR,0.00,WeatherDisplay:10.37,2013-05-10 07:03:00,
2013-05-10 03:09:00,61.0,58.9,30.06,North,0,0.0,0.0,93,0.00,CLR,CLR,0.00,WeatherDisplay:10.37,2013-05-10 07:09:00,
2013-05-10 03:14:00,61.0,58.9,30.06,North,0,0.0,0.0,93,0.00,CLR,CLR,0.00,WeatherDisplay:10.37,2013-05-10 07:14:00,
2013-05-10 03:19:00,61.0,58.9,30.06,North,0,0.0,0.0,93,0.00,CLR,CLR,0.00,WeatherDisplay:10.37,2013-05-10 07:19:00,
2013-05-10 03:24:00,61.0,58.9,30.06,North,0,0.0,0.0,93,0.00,CLR,CLR,0.00,WeatherDisplay:10.37,2013-05-10 07:24:00,
2013-05-10 03:29:00,60.8,58.8,30.06,North,0,0.0,0.0,93,0.00,CLR,CLR,0.00,WeatherDisplay:10.37,2013-05-10 07:29:00,
2013-05-10 03:34:00,60.6,58.9,30.06,North,0,0.0,0.0,94,0.00,CLR,CLR,0.00,WeatherDisplay:10.37,2013-05-10 07:34:00,
2013-05-10 03:39:00,60.4,58.7,30.06,North,0,0.0,0.0,94,0.00,CLR,CLR,0.00,WeatherDisplay:10.37,2013-05-10 07:39:00,
2013-05-10 03:44:00,60.8,59.1,30.06,North,0,0.0,0.0,94,0.00,CLR,CLR,0.00,WeatherDisplay:10.37,2013-05-10 07:44:00,
2013-05-10 03:50:00,61.0,59.2,30.06,North,0,0.0,0.0,94,0.00,CLR,CLR,0.00,WeatherDisplay:10.37,2013-05-10 07:50:00,
2013-05-10 03:55:00,60.8,59.1,30.03,North,0,0.0,0.0,94,0.00,CLR,CLR,0.00,WeatherDisplay:10.37,2013-05-10 07:55:00,
2013-05-10 04:00:00,61.3,59.6,30.03,North,0,0.0,0.0,94,0.00,CLR,CLR,0.00,WeatherDisplay:10.37,2013-05-10 08:00:00,
2013-05-10 04:05:00,61.2,61.2,30.03,North,0,0.0,0.0,100,0.00,CLR,CLR,0.00,WeatherDisplay:10.37,2013-05-10 08:05:00,
2013-05-10 04:10:00,61.2,59.4,30.03,North,0,0.0,0.0,94,0.00,CLR,CLR,0.00,WeatherDisplay:10.37,2013-05-10 08:10:00,
2013-05-10 04:15:00,61.2,59.4,30.03,North,0,0.0,0.0,94,0.00,CLR,CLR,0.00,WeatherDisplay:10.37,2013-05-10 08:15:00,
2013-05-10 04:21:00,61.0,59.2,30.03,North,0,0.0,0.0,94,0.00,CLR,CLR,0.00,WeatherDisplay:10.37,2013-05-10 08:21:00,
2013-05-10 04:26:00,60.8,59.1,30.03,North,0,0.0,0.0,94,0.00,CLR,CLR,0.00,WeatherDisplay:10.37,2013-05-10 08:26:00,
2013-05-10 04:31:00,60.6,59.2,30.03,North,0,0.0,0.0,95,0.00,CLR,CLR,0.00,WeatherDisplay:10.37,2013-05-10 08:31:00,
2013-05-10 04:36:00,60.4,59.0,30.03,North,0,0.0,0.0,95,0.00,CLR,CLR,0.00,WeatherDisplay:10.37,2013-05-10 08:36:00,
2013-05-10 04:42:00,60.4,59.0,30.06,North,0,0.0,0.0,95,0.00,CLR,CLR,0.00,WeatherDisplay:10.37,2013-05-10 08:42:00,
2013-05-10 04:47:00,60.4,59.0,30.06,North,0,0.0,0.0,95,0.00,CLR,CLR,0.00,WeatherDisplay:10.37,2013-05-10 08:47:00,
2013-05-10 04:52:00,60.3,58.8,30.06,North,0,0.0,0.0,95,0.00,CLR,CLR,0.00,WeatherDisplay:10.37,2013-05-10 08:52:00,
2013-05-10 04:57:00,60.1,58.6,30.03,North,0,0.0,0.0,95,0.00,CLR,CLR,0.00,WeatherDisplay:10.37,2013-05-10 08:57:00,
2013-05-10 05:02:00,60.1,58.6,30.03,North,0,0.0,0.0,95,0.00,CLR,CLR,0.00,WeatherDisplay:10.37,2013-05-10 09:02:00,
2013-05-10 05:07:00,59.7,58.3,30.03,North,0,0.0,0.0,95,0.00,CLR,CLR,0.00,WeatherDisplay:10.37,2013-05-10 09:07:00,
2013-05-10 05:12:00,59.7,58.3,30.03,North,0,0.0,0.0,95,0.00,CLR,CLR,0.00,WeatherDisplay:10.37,2013-05-10 09:12:00,
2013-05-10 05:18:00,59.5,58.1,30.03,North,0,0.0,0.0,95,0.00,CLR,CLR,0.00,WeatherDisplay:10.37,2013-05-10 09:18:00,
2013-05-10 05:23:00,59.5,58.1,30.03,North,0,0.0,0.0,95,0.00,CLR,CLR,0.00,WeatherDisplay:10.37,2013-05-10 09:23:00,
2013-05-10 05:28:00,59.4,57.9,30.03,North,0,0.0,0.0,95,0.00,CLR,CLR,0.00,WeatherDisplay:10.37,2013-05-10 09:28:00,
2013-05-10 05:33:00,59.5,58.1,30.03,North,0,0.0,0.0,95,0.00,CLR,CLR,0.00,WeatherDisplay:10.37,2013-05-10 09:33:00,
2013-05-10 05:38:00,59.4,57.9,30.03,North,0,0.0,0.0,95,0.00,CLR,CLR,0.00,WeatherDisplay:10.37,2013-05-10 09:38:00,
2013-05-10 05:43:00,59.4,57.9,30.03,North,0,0.0,0.0,95,0.00,CLR,CLR,0.00,WeatherDisplay:10.37,2013-05-10 09:43:00,
2013-05-10 05:48:00,59.0,57.6,30.03,North,0,0.0,0.0,95,0.00,CLR,CLR,0.00,WeatherDisplay:10.37,2013-05-10 09:48:00,
2013-05-10 05:53:00,59.0,57.6,30.03,North,0,0.0,0.0,95,0.00,CLR,CLR,0.00,WeatherDisplay:10.37,2013-05-10 09:53:00,
2013-05-10 05:58:00,58.8,57.7,30.03,North,0,0.0,0.0,96,0.00,CLR,CLR,0.00,WeatherDisplay:10.37,2013-05-10 09:58:00,
2013-05-10 06:04:00,58.8,57.7,30.03,North,0,0.0,0.0,96,0.00,CLR,CLR,0.00,WeatherDisplay:10.37,2013-05-10 10:04:00,
2013-05-10 06:09:00,58.6,57.5,30.03,North,0,0.0,0.0,96,0.00,CLR,CLR,0.00,WeatherDisplay:10.37,2013-05-10 10:09:00,
2013-05-10 06:14:00,58.6,57.5,30.03,North,0,0.0,0.0,96,0.00,CLR,CLR,0.00,WeatherDisplay:10.37,2013-05-10 10:14:00,
2013-05-10 06:19:00,58.6,57.5,30.03,North,0,0.0,0.0,96,0.00,CLR,CLR,0.00,WeatherDisplay:10.37,2013-05-10 10:19:00,
2013-05-10 06:24:00,58.5,57.3,30.03,North,0,0.0,0.0,96,0.00,CLR,CLR,0.00,WeatherDisplay:10.37,2013-05-10 10:24:00,
2013-05-10 06:29:00,58.5,57.3,30.03,North,0,0.0,0.0,96,0.00,CLR,CLR,0.00,WeatherDisplay:10.37,2013-05-10 10:29:00,
2013-05-10 06:34:00,58.6,57.5,30.03,North,0,0.0,0.0,96,0.00,CLR,CLR,0.00,WeatherDisplay:10.37,2013-05-10 10:34:00,
2013-05-10 06:39:00,58.8,57.4,30.03,North,0,0.0,0.0,95,0.00,CLR,CLR,0.00,WeatherDisplay:10.37,2013-05-10 10:39:00,
2013-05-10 06:44:00,59.4,57.9,30.03,North,0,0.0,0.0,95,0.00,CLR,CLR,0.00,WeatherDisplay:10.37,2013-05-10 10:44:00,
2013-05-10 06:49:00,59.7,58.3,30.03,North,0,0.0,0.0,95,0.00,CLR,CLR,0.00,WeatherDisplay:10.37,2013-05-10 10:49:00,
2013-05-10 06:55:00,60.1,58.6,30.06,North,0,0.0,0.0,95,0.00,CLR,CLR,0.00,WeatherDisplay:10.37,2013-05-10 10:55:00,
2013-05-10 07:00:00,60.6,59.2,30.06,North,0,0.0,0.0,95,0.00,CLR,CLR,0.00,WeatherDisplay:10.37,2013-05-10 11:00:00,
2013-05-10 07:05:00,61.0,59.5,30.06,North,0,0.0,0.0,95,0.00,CLR,CLR,0.00,WeatherDisplay:10.37,2013-05-10 11:05:00,
2013-05-10 07:10:00,61.2,59.7,30.06,North,0,0.0,0.0,95,0.00,CLR,CLR,0.00,WeatherDisplay:10.37,2013-05-10 11:10:00,
2013-05-10 07:15:00,61.7,60.3,30.06,North,0,0.0,0.0,95,0.00,CLR,CLR,0.00,WeatherDisplay:10.37,2013-05-10 11:15:00,
2013-05-10 07:20:00,61.9,60.7,30.06,North,0,0.0,0.0,96,0.00,CLR,CLR,0.00,WeatherDisplay:10.37,2013-05-10 11:20:00,
2013-05-10 07:26:00,62.6,61.1,30.06,North,0,0.0,0.0,95,0.00,CLR,CLR,0.00,WeatherDisplay:10.37,2013-05-10 11:26:00,
2013-05-10 07:31:00,63.1,61.7,30.06,North,0,0.0,0.0,95,0.00,CLR,CLR,0.00,WeatherDisplay:10.37,2013-05-10 11:31:00,
2013-05-10 07:36:00,64.4,62.9,30.06,North,0,0.0,0.0,95,0.00,CLR,CLR,0.00,WeatherDisplay:10.37,2013-05-10 11:36:00,
2013-05-10 07:41:00,65.5,63.7,30.06,North,0,0.0,0.0,94,0.00,CLR,CLR,0.00,WeatherDisplay:10.37,2013-05-10 11:41:00,
2013-05-10 07:46:00,66.4,64.3,30.06,North,0,0.0,0.0,93,0.00,CLR,CLR,0.00,WeatherDisplay:10.37,2013-05-10 11:46:00,
2013-05-10 07:51:00,67.1,65.0,30.06,North,0,0.0,0.0,93,0.00,CLR,CLR,0.00,WeatherDisplay:10.37,2013-05-10 11:51:00,
2013-05-10 07:56:00,68.5,66.1,30.06,North,0,0.0,0.0,92,0.00,CLR,CLR,0.00,WeatherDisplay:10.37,2013-05-10 11:56:00,
2013-05-10 08:01:00,69.1,66.7,30.06,North,0,0.0,0.0,92,0.00,CLR,CLR,0.00,WeatherDisplay:10.37,2013-05-10 12:01:00,
2013-05-10 08:06:00,69.4,67.0,30.06,North,0,0.0,0.0,92,0.00,CLR,CLR,0.00,WeatherDisplay:10.37,2013-05-10 12:06:00,
2013-05-10 08:11:00,69.6,66.9,30.06,North,0,0.0,0.0,91,0.00,CLR,CLR,0.00,WeatherDisplay:10.37,2013-05-10 12:11:00,
2013-05-10 08:16:00,70.0,67.2,30.06,North,0,0.0,0.0,91,0.00,CLR,CLR,0.00,WeatherDisplay:10.37,2013-05-10 12:16:00,
2013-05-10 08:22:00,71.4,68.3,30.06,North,0,0.0,0.0,90,0.00,CLR,CLR,0.00,WeatherDisplay:10.37,2013-05-10 12:22:00,
2013-05-10 08:27:00,71.8,68.4,30.06,North,0,0.0,0.0,89,0.00,CLR,CLR,0.00,WeatherDisplay:10.37,2013-05-10 12:27:00,
2013-05-10 08:32:00,72.3,68.6,30.06,North,0,0.0,0.0,88,0.00,CLR,CLR,0.00,WeatherDisplay:10.37,2013-05-10 12:32:00,
2013-05-10 08:37:00,73.0,68.9,30.06,North,0,0.0,0.0,87,0.00,CLR,CLR,0.00,WeatherDisplay:10.37,2013-05-10 12:37:00,
2013-05-10 08:42:00,73.8,69.3,30.06,North,0,0.0,0.0,86,0.00,CLR,CLR,0.00,WeatherDisplay:10.37,2013-05-10 12:42:00,
2013-05-10 08:48:00,74.3,69.5,30.06,North,0,0.0,0.0,85,0.00,CLR,CLR,0.00,WeatherDisplay:10.37,2013-05-10 12:48:00,
2013-05-10 08:53:00,75.0,69.9,30.06,North,0,0.0,0.0,84,0.00,CLR,CLR,0.00,WeatherDisplay:10.37,2013-05-10 12:53:00,
2013-05-10 08:58:00,75.6,70.0,30.06,North,0,0.0,0.0,83,0.00,CLR,CLR,0.00,WeatherDisplay:10.37,2013-05-10 12:58:00,
2013-05-10 09:03:00,76.3,70.4,30.06,North,0,0.0,0.0,82,0.00,CLR,CLR,0.00,WeatherDisplay:10.37,2013-05-10 13:03:00,
2013-05-10 09:08:00,76.8,70.5,30.06,North,0,0.0,0.0,81,0.00,CLR,CLR,0.00,WeatherDisplay:10.37,2013-05-10 13:08:00,
2013-05-10 09:13:00,77.7,70.7,30.06,North,0,0.0,0.0,79,0.00,CLR,CLR,0.00,WeatherDisplay:10.37,2013-05-10 13:13:00,
2013-05-10 09:18:00,77.9,70.5,30.06,North,0,0.0,0.0,78,0.00,CLR,CLR,0.00,WeatherDisplay:10.37,2013-05-10 13:18:00,
2013-05-10 09:23:00,78.4,70.6,30.06,North,0,0.0,0.0,77,0.00,CLR,CLR,0.00,WeatherDisplay:10.37,2013-05-10 13:23:00,
2013-05-10 09:28:00,78.4,70.2,30.06,North,0,0.0,0.0,76,0.00,CLR,CLR,0.00,WeatherDisplay:10.37,2013-05-10 13:28:00,
2013-05-10 09:33:00,79.3,70.7,30.06,North,0,0.0,0.0,75,0.00,CLR,CLR,0.00,WeatherDisplay:10.37,2013-05-10 13:33:00,
2013-05-10 09:38:00,80.1,71.0,30.06,North,0,0.0,0.0,74,0.00,CLR,CLR,0.00,WeatherDisplay:10.37,2013-05-10 13:38:00,
2013-05-10 09:44:00,81.1,71.7,30.06,North,0,0.0,0.0,73,0.00,CLR,CLR,0.00,WeatherDisplay:10.37,2013-05-10 13:44:00,
2013-05-10 09:49:00,81.5,71.6,30.06,North,0,0.0,0.0,72,0.00,CLR,CLR,0.00,WeatherDisplay:10.37,2013-05-10 13:49:00,
2013-05-10 09:54:00,81.5,70.8,30.06,North,0,0.0,0.0,70,0.00,CLR,CLR,0.00,WeatherDisplay:10.37,2013-05-10 13:54:00,
2013-05-10 09:59:00,81.3,70.6,30.06,North,0,0.0,0.0,70,0.00,CLR,CLR,0.00,WeatherDisplay:10.37,2013-05-10 13:59:00,
2013-05-10 10:05:00,81.5,69.9,30.06,North,0,0.0,0.0,68,0.00,CLR,CLR,0.00,WeatherDisplay:10.37,2013-05-10 14:05:00,
2013-05-10 10:10:00,81.7,70.1,30.06,North,0,0.0,0.0,68,0.00,CLR,CLR,0.00,WeatherDisplay:10.37,2013-05-10 14:10:00,
2013-05-10 10:15:00,82.4,70.8,30.06,North,0,0.0,0.0,68,0.00,CLR,CLR,0.00,WeatherDisplay:10.37,2013-05-10 14:15:00,
2013-05-10 10:20:00,82.6,70.9,30.06,North,0,0.0,0.0,68,0.00,CLR,CLR,0.00,WeatherDisplay:10.37,2013-05-10 14:20:00,
2013-05-10 10:25:00,82.2,70.6,30.06,North,0,0.0,0.0,68,0.00,CLR,CLR,0.00,WeatherDisplay:10.37,2013-05-10 14:25:00,
2013-05-10 10:31:00,82.2,70.6,30.06,North,0,0.0,0.0,68,0.00,CLR,CLR,0.00,WeatherDisplay:10.37,2013-05-10 14:31:00,
2013-05-10 10:36:00,82.4,69.9,30.06,North,0,0.0,0.0,66,0.00,CLR,CLR,0.00,WeatherDisplay:10.37,2013-05-10 14:36:00,
2013-05-10 10:41:00,82.0,70.0,30.06,North,0,0.0,0.0,67,0.00,CLR,CLR,0.00,WeatherDisplay:10.37,2013-05-10 14:41:00,
2013-05-10 10:46:00,81.7,69.2,30.06,North,0,0.0,0.0,66,0.00,CLR,CLR,0.00,WeatherDisplay:10.37,2013-05-10 14:46:00,
2013-05-10 10:51:00,81.9,69.8,30.06,North,0,0.0,0.0,67,0.00,CLR,CLR,0.00,WeatherDisplay:10.37,2013-05-10 14:51:00,
2013-05-10 10:56:00,81.0,68.1,30.06,North,0,0.0,0.0,65,0.00,CLR,CLR,0.00,WeatherDisplay:10.37,2013-05-10 14:56:00,
2013-05-10 11:01:00,81.3,68.9,30.06,North,0,0.0,0.0,66,0.00,CLR,CLR,0.00,WeatherDisplay:10.37,2013-05-10 15:01:00,
2013-05-10 11:06:00,81.1,68.7,30.06,North,0,0.0,0.0,66,0.00,CLR,CLR,0.00,WeatherDisplay:10.37,2013-05-10 15:06:00,
2013-05-10 11:12:00,80.4,68.0,30.06,North,0,0.0,0.0,66,0.00,CLR,CLR,0.00,WeatherDisplay:10.37,2013-05-10 15:12:00,
2013-05-10 11:17:00,80.2,68.3,30.06,North,0,0.0,0.0,67,0.00,CLR,CLR,0.00,WeatherDisplay:10.37,2013-05-10 15:17:00,
2013-05-10 11:22:00,80.8,68.8,30.06,North,0,0.0,0.0,67,0.00,CLR,CLR,0.00,WeatherDisplay:10.37,2013-05-10 15:22:00,
2013-05-10 11:27:00,80.1,68.1,30.06,North,0,0.0,0.0,67,0.00,CLR,CLR,0.00,WeatherDisplay:10.37,2013-05-10 15:27:00,
2013-05-10 11:32:00,79.9,68.4,30.06,North,0,0.0,0.0,68,0.00,CLR,CLR,0.00,WeatherDisplay:10.37,2013-05-10 15:32:00,
2013-05-10 11:37:00,79.7,68.2,30.06,North,0,0.0,0.0,68,0.00,CLR,CLR,0.00,WeatherDisplay:10.37,2013-05-10 15:37:00,
2013-05-10 11:42:00,79.0,67.5,30.06,North,0,0.0,0.0,68,0.00,CLR,CLR,0.00,WeatherDisplay:10.37,2013-05-10 15:42:00,
2013-05-10 11:47:00,79.0,67.1,30.06,North,0,0.0,0.0,67,0.00,CLR,CLR,0.00,WeatherDisplay:10.37,2013-05-10 15:47:00,
2013-05-10 11:52:00,78.6,67.2,30.06,North,0,0.0,0.0,68,0.00,CLR,CLR,0.00,WeatherDisplay:10.37,2013-05-10 15:52:00,
2013-05-10 11:58:00,79.2,67.7,30.06,North,0,0.0,0.0,68,0.00,CLR,CLR,0.00,WeatherDisplay:10.37,2013-05-10 15:58:00,
2013-05-10 12:03:00,78.4,67.0,30.06,North,0,0.0,0.0,68,0.00,CLR,CLR,0.00,WeatherDisplay:10.37,2013-05-10 16:03:00,
2013-05-10 12:08:00,78.6,67.2,30.06,North,0,0.0,0.0,68,0.00,CLR,CLR,0.00,WeatherDisplay:10.37,2013-05-10 16:08:00,
2013-05-10 12:13:00,78.8,67.3,30.06,North,0,0.0,0.0,68,0.00,CLR,CLR,0.00,WeatherDisplay:10.37,2013-05-10 16:13:00,
2013-05-10 12:19:00,78.3,66.8,30.06,North,0,0.0,0.0,68,0.00,CLR,CLR,0.00,WeatherDisplay:10.37,2013-05-10 16:19:00,
2013-05-10 12:24:00,78.8,66.9,30.06,North,0,0.0,0.0,67,0.00,CLR,CLR,0.00,WeatherDisplay:10.37,2013-05-10 16:24:00,
2013-05-10 12:29:00,78.4,67.0,30.06,North,0,0.0,0.0,68,0.00,CLR,CLR,0.00,WeatherDisplay:10.37,2013-05-10 16:29:00,
2013-05-10 12:34:00,77.7,66.3,30.06,North,0,0.0,0.0,68,0.00,CLR,CLR,0.00,WeatherDisplay:10.37,2013-05-10 16:34:00,
2013-05-10 12:39:00,77.5,66.1,30.03,North,0,0.0,0.0,68,0.00,CLR,CLR,0.00,WeatherDisplay:10.37,2013-05-10 16:39:00,
2013-05-10 12:44:00,77.2,65.8,30.03,North,0,0.0,0.0,68,0.00,CLR,CLR,0.00,WeatherDisplay:10.37,2013-05-10 16:44:00,
2013-05-10 12:50:00,77.2,65.4,30.03,North,0,0.0,0.0,67,0.00,CLR,CLR,0.00,WeatherDisplay:10.37,2013-05-10 16:50:00,
2013-05-10 12:55:00,77.2,65.8,30.06,North,0,0.0,0.0,68,0.00,CLR,CLR,0.00,WeatherDisplay:10.37,2013-05-10 16:55:00,
2013-05-10 13:00:00,77.9,66.5,30.06,North,0,0.0,0.0,68,0.00,CLR,CLR,0.00,WeatherDisplay:10.37,2013-05-10 17:00:00,
2013-05-10 13:05:00,79.0,67.1,30.06,North,0,0.0,0.0,67,0.00,CLR,CLR,0.00,WeatherDisplay:10.37,2013-05-10 17:05:00,
2013-05-10 13:10:00,78.8,66.5,30.06,North,0,0.0,0.0,66,0.00,CLR,CLR,0.00,WeatherDisplay:10.37,2013-05-10 17:10:00,
2013-05-10 13:15:00,79.5,66.7,30.06,North,0,0.0,0.0,65,0.00,CLR,CLR,0.00,WeatherDisplay:10.37,2013-05-10 17:15:00,
2013-05-10 13:21:00,79.3,66.5,30.06,North,0,0.0,0.0,65,0.00,CLR,CLR,0.00,WeatherDisplay:10.37,2013-05-10 17:21:00,
2013-05-10 13:26:00,79.0,66.2,30.03,North,0,0.0,0.0,65,0.00,CLR,CLR,0.00,WeatherDisplay:10.37,2013-05-10 17:26:00,
2013-05-10 13:31:00,79.2,66.4,30.03,North,0,0.0,0.0,65,0.00,CLR,CLR,0.00,WeatherDisplay:10.37,2013-05-10 17:31:00,
2013-05-10 13:36:00,79.7,66.9,30.03,North,0,0.0,0.0,65,0.00,CLR,CLR,0.00,WeatherDisplay:10.37,2013-05-10 17:36:00,
2013-05-10 13:41:00,79.3,66.5,30.06,North,0,0.0,0.0,65,0.00,CLR,CLR,0.00,WeatherDisplay:10.37,2013-05-10 17:41:00,
2013-05-10 13:47:00,80.1,67.2,30.06,North,0,0.0,0.0,65,0.00,CLR,CLR,0.00,WeatherDisplay:10.37,2013-05-10 17:47:00,
2013-05-10 13:52:00,79.0,65.3,30.06,North,0,0.0,0.0,63,0.00,CLR,CLR,0.00,WeatherDisplay:10.37,2013-05-10 17:52:00,
2013-05-10 13:57:00,78.8,65.6,30.06,North,0,0.0,0.0,64,0.00,CLR,CLR,0.00,WeatherDisplay:10.37,2013-05-10 17:57:00,
2013-05-10 14:02:00,78.6,65.4,30.06,North,0,0.0,0.0,64,0.00,CLR,CLR,0.00,WeatherDisplay:10.37,2013-05-10 18:02:00,
2013-05-10 14:07:00,78.8,65.6,30.06,North,0,0.0,0.0,64,0.00,CLR,CLR,0.00,WeatherDisplay:10.37,2013-05-10 18:07:00,
2013-05-10 14:12:00,78.3,65.1,30.06,North,0,0.0,0.0,64,0.00,CLR,CLR,0.00,WeatherDisplay:10.37,2013-05-10 18:12:00,
2013-05-10 14:18:00,78.1,64.9,30.06,North,0,0.0,0.0,64,0.00,CLR,CLR,0.00,WeatherDisplay:10.37,2013-05-10 18:18:00,
2013-05-10 14:23:00,78.4,65.2,30.06,North,0,0.0,0.0,64,0.00,CLR,CLR,0.00,WeatherDisplay:10.37,2013-05-10 18:23:00,
2013-05-10 14:28:00,78.6,65.0,30.06,North,0,0.0,0.0,63,0.00,CLR,CLR,0.00,WeatherDisplay:10.37,2013-05-10 18:28:00,
2013-05-10 14:33:00,79.0,65.3,30.06,North,0,0.0,0.0,63,0.00,CLR,CLR,0.00,WeatherDisplay:10.37,2013-05-10 18:33:00,
2013-05-10 14:38:00,78.4,64.8,30.06,North,0,0.0,0.0,63,0.00,CLR,CLR,0.00,WeatherDisplay:10.37,2013-05-10 18:38:00,
2013-05-10 14:43:00,78.8,64.7,30.06,North,0,0.0,0.0,62,0.00,CLR,CLR,0.00,WeatherDisplay:10.37,2013-05-10 18:43:00,
2013-05-10 14:49:00,79.3,65.2,30.06,North,0,0.0,0.0,62,0.00,CLR,CLR,0.00,WeatherDisplay:10.37,2013-05-10 18:49:00,
2013-05-10 14:54:00,78.8,63.7,30.06,North,0,0.0,0.0,60,0.00,CLR,CLR,0.00,WeatherDisplay:10.37,2013-05-10 18:54:00,
2013-05-10 14:59:00,79.0,64.8,30.06,North,0,0.0,0.0,62,0.00,CLR,CLR,0.00,WeatherDisplay:10.37,2013-05-10 18:59:00,
2013-05-10 15:04:00,79.2,65.0,30.06,North,0,0.0,0.0,62,0.00,CLR,CLR,0.00,WeatherDisplay:10.37,2013-05-10 19:04:00,
2013-05-10 15:09:00,79.5,64.9,30.06,North,0,0.0,0.0,61,0.00,CLR,CLR,0.00,WeatherDisplay:10.37,2013-05-10 19:09:00,
2013-05-10 15:14:00,79.7,65.1,30.06,North,0,0.0,0.0,61,0.00,CLR,CLR,0.00,WeatherDisplay:10.37,2013-05-10 19:14:00,
2013-05-10 15:19:00,79.3,64.2,30.06,North,0,0.0,0.0,60,0.00,CLR,CLR,0.00,WeatherDisplay:10.37,2013-05-10 19:19:00,
2013-05-10 15:24:00,79.9,65.2,30.06,North,0,0.0,0.0,61,0.00,CLR,CLR,0.00,WeatherDisplay:10.37,2013-05-10 19:24:00,
2013-05-10 15:29:00,80.8,65.6,30.06,North,0,0.0,0.0,60,0.00,CLR,CLR,0.00,WeatherDisplay:10.37,2013-05-10 19:29:00,
2013-05-10 15:34:00,79.9,64.8,30.06,North,0,0.0,0.0,60,0.00,CLR,CLR,0.00,WeatherDisplay:10.37,2013-05-10 19:34:00,
2013-05-10 15:40:00,80.4,64.8,30.06,North,0,0.0,0.0,59,0.00,CLR,CLR,0.00,WeatherDisplay:10.37,2013-05-10 19:40:00,
2013-05-10 15:45:00,80.4,65.3,30.06,North,0,0.0,0.0,60,0.00,CLR,CLR,0.00,WeatherDisplay:10.37,2013-05-10 19:45:00,
2013-05-10 15:50:00,80.8,65.1,30.06,North,0,0.0,0.0,59,0.00,CLR,CLR,0.00,WeatherDisplay:10.37,2013-05-10 19:50:00,
2013-05-10 15:55:00,80.8,65.6,30.06,North,0,0.0,0.0,60,0.00,CLR,CLR,0.00,WeatherDisplay:10.37,2013-05-10 19:55:00,
2013-05-10 16:00:00,80.4,65.3,30.06,North,0,0.0,0.0,60,0.00,CLR,CLR,0.00,WeatherDisplay:10.37,2013-05-10 20:00:00,
2013-05-10 16:05:00,80.2,65.1,30.06,North,0,0.0,0.0,60,0.00,CLR,CLR,0.00,WeatherDisplay:10.37,2013-05-10 20:05:00,
2013-05-10 16:10:00,80.1,64.9,30.03,North,0,0.0,0.0,60,0.00,CLR,CLR,0.00,WeatherDisplay:10.37,2013-05-10 20:10:00,
2013-05-10 16:15:00,80.2,65.1,30.03,North,0,0.0,0.0,60,0.00,CLR,CLR,0.00,WeatherDisplay:10.37,2013-05-10 20:15:00,
2013-05-10 16:20:00,79.9,65.2,30.03,North,0,0.0,0.0,61,0.00,CLR,CLR,0.00,WeatherDisplay:10.37,2013-05-10 20:20:00,
2013-05-10 16:25:00,80.1,65.4,30.03,North,0,0.0,0.0,61,0.00,CLR,CLR,0.00,WeatherDisplay:10.37,2013-05-10 20:25:00,
2013-05-10 16:31:00,80.6,65.9,30.03,North,0,0.0,0.0,61,0.00,CLR,CLR,0.00,WeatherDisplay:10.37,2013-05-10 20:31:00,
2013-05-10 16:36:00,80.1,64.9,30.03,North,0,0.0,0.0,60,0.00,CLR,CLR,0.00,WeatherDisplay:10.37,2013-05-10 20:36:00,
2013-05-10 16:41:00,79.5,64.4,30.03,North,0,0.0,0.0,60,0.00,CLR,CLR,0.00,WeatherDisplay:10.37,2013-05-10 20:41:00,
2013-05-10 16:46:00,79.7,64.6,30.03,North,0,0.0,0.0,60,0.00,CLR,CLR,0.00,WeatherDisplay:10.37,2013-05-10 20:46:00,
2013-05-10 16:52:00,79.7,64.6,30.03,North,0,0.0,0.0,60,0.00,CLR,CLR,0.00,WeatherDisplay:10.37,2013-05-10 20:52:00,
2013-05-10 16:57:00,81.1,66.4,30.03,North,0,0.0,0.0,61,0.00,CLR,CLR,0.00,WeatherDisplay:10.37,2013-05-10 20:57:00,
2013-05-10 17:02:00,80.6,65.4,30.03,North,0,0.0,0.0,60,0.00,CLR,CLR,0.00,WeatherDisplay:10.37,2013-05-10 21:02:00,
2013-05-10 17:07:00,80.4,65.7,30.03,North,0,0.0,0.0,61,0.00,CLR,CLR,0.00,WeatherDisplay:10.37,2013-05-10 21:07:00,
2013-05-10 17:12:00,81.0,66.2,30.03,North,0,0.0,0.0,61,0.00,CLR,CLR,0.00,WeatherDisplay:10.37,2013-05-10 21:12:00,
2013-05-10 17:17:00,80.1,64.9,30.03,North,0,0.0,0.0,60,0.00,CLR,CLR,0.00,WeatherDisplay:10.37,2013-05-10 21:17:00,
2013-05-10 17:23:00,79.3,64.2,30.03,North,0,0.0,0.0,60,0.00,CLR,CLR,0.00,WeatherDisplay:10.37,2013-05-10 21:23:00,
2013-05-10 17:28:00,79.0,64.4,30.03,North,0,0.0,0.0,61,0.00,CLR,CLR,0.00,WeatherDisplay:10.37,2013-05-10 21:28:00,
2013-05-10 17:33:00,78.6,64.5,30.03,North,0,0.0,0.0,62,0.00,CLR,CLR,0.00,WeatherDisplay:10.37,2013-05-10 21:33:00,
2013-05-10 17:38:00,78.3,64.2,30.03,North,0,0.0,0.0,62,0.00,CLR,CLR,0.00,WeatherDisplay:10.37,2013-05-10 21:38:00,
2013-05-10 17:43:00,78.1,64.5,30.03,North,0,0.0,0.0,63,0.00,CLR,CLR,0.00,WeatherDisplay:10.37,2013-05-10 21:43:00,
2013-05-10 17:48:00,77.7,64.6,30.03,North,0,0.0,0.0,64,0.00,CLR,CLR,0.00,WeatherDisplay:10.37,2013-05-10 21:48:00,
2013-05-10 17:54:00,77.7,65.0,30.03,North,0,0.0,0.0,65,0.00,CLR,CLR,0.00,WeatherDisplay:10.37,2013-05-10 21:54:00,
2013-05-10 17:58:00,77.7,65.0,30.03,North,0,0.0,0.0,65,0.00,CLR,CLR,0.00,WeatherDisplay:10.37,2013-05-10 21:58:00,
2013-05-10 17:59:00,77.7,65.0,30.03,North,0,0.0,0.0,65,0.00,CLR,CLR,0.00,WeatherDisplay:10.37,2013-05-10 21:59:00,
2013-05-10 18:00:00,77.5,64.8,30.03,North,0,0.0,0.0,65,0.00,CLR,CLR,0.00,WeatherDisplay:10.37,2013-05-10 22:00:00,
2013-05-10 18:06:00,77.7,65.0,30.03,North,0,0.0,0.0,65,0.00,CLR,CLR,0.00,WeatherDisplay:10.37,2013-05-10 22:06:00,
2013-05-10 18:11:00,77.4,64.7,30.03,North,0,0.0,0.0,65,0.00,CLR,CLR,0.00,WeatherDisplay:10.37,2013-05-10 22:11:00,
2013-05-10 18:16:00,77.2,64.5,30.03,North,0,0.0,0.0,65,0.00,CLR,CLR,0.00,WeatherDisplay:10.37,2013-05-10 22:16:00,
2013-05-10 18:21:00,77.4,64.7,30.03,North,0,0.0,0.0,65,0.00,CLR,CLR,0.00,WeatherDisplay:10.37,2013-05-10 22:21:00,
2013-05-10 18:26:00,77.4,65.1,30.00,North,0,0.0,0.0,66,0.00,CLR,CLR,0.00,WeatherDisplay:10.37,2013-05-10 22:26:00,
2013-05-10 18:31:00,77.5,65.3,30.00,North,0,0.0,0.0,66,0.00,CLR,CLR,0.00,WeatherDisplay:10.37,2013-05-10 22:31:00,
2013-05-10 18:36:00,77.2,65.4,30.00,North,0,0.0,0.0,67,0.00,CLR,CLR,0.00,WeatherDisplay:10.37,2013-05-10 22:36:00,
2013-05-10 18:41:00,76.3,64.5,30.00,North,0,0.0,0.0,67,0.00,CLR,CLR,0.00,WeatherDisplay:10.37,2013-05-10 22:41:00,
2013-05-10 18:47:00,75.9,64.6,30.00,North,0,0.0,0.0,68,0.00,CLR,CLR,0.00,WeatherDisplay:10.37,2013-05-10 22:47:00,
2013-05-10 18:52:00,75.4,64.1,30.00,North,0,0.0,0.0,68,0.00,CLR,CLR,0.00,WeatherDisplay:10.37,2013-05-10 22:52:00,
2013-05-10 18:57:00,74.7,63.8,30.00,North,0,0.0,0.0,69,0.00,CLR,CLR,0.00,WeatherDisplay:10.37,2013-05-10 22:57:00,
2013-05-10 19:02:00,74.1,63.3,30.00,North,0,0.0,0.0,69,0.00,CLR,CLR,0.00,WeatherDisplay:10.37,2013-05-10 23:02:00,
2013-05-10 19:07:00,73.9,63.5,30.00,North,0,0.0,0.0,70,0.00,CLR,CLR,0.00,WeatherDisplay:10.37,2013-05-10 23:07:00,
2013-05-10 19:13:00,73.6,63.2,30.00,North,0,0.0,0.0,70,0.00,CLR,CLR,0.00,WeatherDisplay:10.37,2013-05-10 23:13:00,
2013-05-10 19:18:00,73.4,63.0,30.00,North,0,0.0,0.0,70,0.00,CLR,CLR,0.00,WeatherDisplay:10.37,2013-05-10 23:18:00,
2013-05-10 19:23:00,72.7,62.7,30.00,North,0,0.0,0.0,71,0.00,CLR,CLR,0.00,WeatherDisplay:10.37,2013-05-10 23:23:00,
2013-05-10 19:28:00,72.5,63.0,30.00,North,0,0.0,0.0,72,0.00,CLR,CLR,0.00,WeatherDisplay:10.37,2013-05-10 23:28:00,
2013-05-10 19:33:00,72.3,62.8,30.00,North,0,0.0,0.0,72,0.00,CLR,CLR,0.00,WeatherDisplay:10.37,2013-05-10 23:33:00,
2013-05-10 19:38:00,72.1,63.4,30.00,North,0,0.0,0.0,74,0.00,CLR,CLR,0.00,WeatherDisplay:10.37,2013-05-10 23:38:00,
2013-05-10 19:44:00,72.0,63.2,30.00,North,0,0.0,0.0,74,0.00,CLR,CLR,0.00,WeatherDisplay:10.37,2013-05-10 23:44:00,
2013-05-10 19:49:00,71.8,63.4,30.00,North,0,0.0,0.0,75,0.00,CLR,CLR,0.00,WeatherDisplay:10.37,2013-05-10 23:49:00,
2013-05-10 19:54:00,71.6,63.6,30.00,North,0,0.0,0.0,76,0.00,CLR,CLR,0.00,WeatherDisplay:10.37,2013-05-10 23:54:00,
2013-05-10 19:59:00,71.6,64.0,30.00,North,0,0.0,0.0,77,0.00,CLR,CLR,0.00,WeatherDisplay:10.37,2013-05-10 23:59:00,
2013-05-10 20:04:00,71.2,63.7,30.00,North,0,0.0,0.0,77,0.00,CLR,CLR,0.00,WeatherDisplay:10.37,2013-05-11 00:04:00,
2013-05-10 20:09:00,71.1,63.5,30.03,North,0,0.0,0.0,77,0.00,CLR,CLR,0.00,WeatherDisplay:10.37,2013-05-11 00:09:00,
2013-05-10 20:14:00,70.9,63.7,30.03,North,0,0.0,0.0,78,0.00,CLR,CLR,0.00,WeatherDisplay:10.37,2013-05-11 00:14:00,
2013-05-10 20:20:00,70.9,63.7,30.03,North,0,0.0,0.0,78,0.00,CLR,CLR,0.00,WeatherDisplay:10.37,2013-05-11 00:20:00,
2013-05-10 20:25:00,70.5,63.7,30.03,North,0,0.0,0.0,79,0.00,CLR,CLR,0.00,WeatherDisplay:10.37,2013-05-11 00:25:00,
2013-05-10 20:30:00,70.5,63.7,30.03,North,0,0.0,0.0,79,0.00,CLR,CLR,0.00,WeatherDisplay:10.37,2013-05-11 00:30:00,
2013-05-10 20:35:00,70.3,63.9,30.03,North,0,0.0,0.0,80,0.00,CLR,CLR,0.00,WeatherDisplay:10.37,2013-05-11 00:35:00,
2013-05-10 20:40:00,70.3,63.9,30.03,North,0,0.0,0.0,80,0.00,CLR,CLR,0.00,WeatherDisplay:10.37,2013-05-11 00:40:00,
2013-05-10 20:45:00,70.5,64.4,30.03,North,0,0.0,0.0,81,0.00,CLR,CLR,0.00,WeatherDisplay:10.37,2013-05-11 00:45:00,
2013-05-10 20:50:00,70.3,64.2,30.03,North,0,0.0,0.0,81,0.00,CLR,CLR,0.00,WeatherDisplay:10.37,2013-05-11 00:50:00,
2013-05-10 20:56:00,70.3,64.6,30.03,North,0,0.0,0.0,82,0.00,CLR,CLR,0.00,WeatherDisplay:10.37,2013-05-11 00:56:00,
2013-05-10 21:01:00,70.2,64.4,30.03,North,0,0.0,0.0,82,0.00,CLR,CLR,0.00,WeatherDisplay:10.37,2013-05-11 01:01:00,
2013-05-10 21:06:00,70.2,64.8,30.03,North,0,0.0,0.0,83,0.00,CLR,CLR,0.00,WeatherDisplay:10.37,2013-05-11 01:06:00,
2013-05-10 21:11:00,70.0,64.6,30.03,North,0,0.0,0.0,83,0.00,CLR,CLR,0.00,WeatherDisplay:10.37,2013-05-11 01:11:00,
2013-05-10 21:16:00,70.2,65.1,30.03,North,0,0.0,0.0,84,0.00,CLR,CLR,0.00,WeatherDisplay:10.37,2013-05-11 01:16:00,
2013-05-10 21:21:00,70.0,64.9,30.03,North,0,0.0,0.0,84,0.00,CLR,CLR,0.00,WeatherDisplay:10.37,2013-05-11 01:21:00,
2013-05-10 21:27:00,70.0,64.9,30.00,North,0,0.0,0.0,84,0.00,CLR,CLR,0.00,WeatherDisplay:10.37,2013-05-11 01:27:00,
2013-05-10 21:32:00,69.8,65.1,30.00,North,0,0.0,0.0,85,0.00,CLR,CLR,0.00,WeatherDisplay:10.37,2013-05-11 01:32:00,
2013-05-10 21:37:00,70.0,65.6,30.00,North,0,0.0,0.0,86,0.00,CLR,CLR,0.00,WeatherDisplay:10.37,2013-05-11 01:37:00,
2013-05-10 21:42:00,69.8,65.4,30.03,North,0,0.0,0.0,86,0.00,CLR,CLR,0.00,WeatherDisplay:10.37,2013-05-11 01:42:00,
2013-05-10 21:47:00,70.0,65.9,30.03,North,0,0.0,0.0,87,0.00,CLR,CLR,0.00,WeatherDisplay:10.37,2013-05-11 01:47:00,
2013-05-10 21:52:00,70.0,66.3,30.03,North,0,0.0,0.0,88,0.00,CLR,CLR,0.00,WeatherDisplay:10.37,2013-05-11 01:52:00,
2013-05-10 21:57:00,70.0,66.3,30.03,North,0,0.0,0.0,88,0.00,CLR,CLR,0.00,WeatherDisplay:10.37,2013-05-11 01:57:00,
2013-05-10 22:02:00,70.0,66.3,30.03,North,0,0.0,0.0,88,0.00,CLR,CLR,0.00,WeatherDisplay:10.37,2013-05-11 02:02:00,
2013-05-10 22:07:00,70.0,66.3,30.03,North,0,0.0,0.0,88,0.00,CLR,CLR,0.00,WeatherDisplay:10.37,2013-05-11 02:07:00,
2013-05-10 22:12:00,70.0,66.6,30.03,North,0,0.0,0.0,89,0.00,CLR,CLR,0.00,WeatherDisplay:10.37,2013-05-11 02:12:00,
2013-05-10 22:17:00,70.3,67.3,30.03,North,0,0.0,0.0,90,0.00,CLR,CLR,0.00,WeatherDisplay:10.37,2013-05-11 02:17:00,
2013-05-10 22:23:00,70.3,66.9,30.03,North,0,0.0,0.0,89,0.00,CLR,CLR,0.00,WeatherDisplay:10.37,2013-05-11 02:23:00,
2013-05-10 22:28:00,70.3,66.9,30.03,North,0,0.0,0.0,89,0.00,CLR,CLR,0.00,WeatherDisplay:10.37,2013-05-11 02:28:00,
2013-05-10 22:33:00,70.2,66.8,30.03,North,0,0.0,0.0,89,0.00,CLR,CLR,0.00,WeatherDisplay:10.37,2013-05-11 02:33:00,
2013-05-10 22:38:00,70.0,66.6,30.03,North,0,0.0,0.0,89,0.00,CLR,CLR,0.00,WeatherDisplay:10.37,2013-05-11 02:38:00,
2013-05-10 22:43:00,70.0,66.6,30.03,North,0,0.0,0.0,89,0.00,CLR,CLR,0.00,WeatherDisplay:10.37,2013-05-11 02:43:00,
2013-05-10 22:48:00,69.8,66.7,30.03,North,0,0.0,0.0,90,0.00,CLR,CLR,0.00,WeatherDisplay:10.37,2013-05-11 02:48:00,
2013-05-10 22:54:00,69.8,66.7,30.00,North,0,0.0,0.0,90,0.00,CLR,CLR,0.00,WeatherDisplay:10.37,2013-05-11 02:54:00,
2013-05-10 22:59:00,69.8,66.7,30.00,North,0,0.0,0.0,90,0.00,CLR,CLR,0.00,WeatherDisplay:10.37,2013-05-11 02:59:00,
2013-05-10 23:04:00,69.8,66.7,30.00,North,0,0.0,0.0,90,0.00,CLR,CLR,0.00,WeatherDisplay:10.37,2013-05-11 03:04:00,
2013-05-10 23:10:00,69.8,66.7,30.00,North,0,0.0,0.0,90,0.00,CLR,CLR,0.00,WeatherDisplay:10.37,2013-05-11 03:10:00,
2013-05-10 23:15:00,69.6,66.9,30.00,North,0,0.0,0.0,91,0.00,CLR,CLR,0.00,WeatherDisplay:10.37,2013-05-11 03:15:00,
2013-05-10 23:20:00,69.8,67.1,30.00,North,0,0.0,0.0,91,0.00,CLR,CLR,0.00,WeatherDisplay:10.37,2013-05-11 03:20:00,
2013-05-10 23:25:00,69.8,67.1,30.00,North,0,0.0,0.0,91,0.00,CLR,CLR,0.00,WeatherDisplay:10.37,2013-05-11 03:25:00,
2013-05-10 23:30:00,69.8,67.1,30.00,North,0,0.0,0.0,91,0.00,CLR,CLR,0.00,WeatherDisplay:10.37,2013-05-11 03:30:00,
2013-05-10 23:35:00,69.8,67.1,30.00,North,0,0.0,0.0,91,0.00,CLR,CLR,0.00,WeatherDisplay:10.37,2013-05-11 03:35:00,
2013-05-10 23:40:00,69.8,67.1,30.00,North,0,0.0,0.0,91,0.00,CLR,CLR,0.00,WeatherDisplay:10.37,2013-05-11 03:40:00,
2013-05-10 23:45:00,69.8,67.1,30.00,North,0,0.0,0.0,91,0.00,CLR,CLR,0.00,WeatherDisplay:10.37,2013-05-11 03:45:00,
2013-05-10 23:50:00,70.0,67.2,30.00,North,0,0.0,0.0,91,0.00,CLR,CLR,0.00,WeatherDisplay:10.37,2013-05-11 03:50:00,
2013-05-10 23:55:00,70.0,67.2,30.03,North,0,0.0,0.0,91,0.00,CLR,CLR,0.00,WeatherDisplay:10.37,2013-05-11 03:55:00,